sensor_id;sensor_type;location;lat;lon;timestamp;pressure;altitude;pressure_sealevel;temperature;humidity
7180;BME280;3631;42.152;24.756;2023-12-04T00:01:13;86555.59;;;-144.30;92.58
7180;BME280;3631;42.152;24.756;2023-12-04T00:03:40;86603.31;;;-144.30;91.32
7180;BME280;3631;42.152;24.756;2023-12-04T00:06:07;86579.47;;;-144.30;91.50
7180;BME280;3631;42.152;24.756;2023-12-04T00:08:35;86583.44;;;-144.30;91.33
7180;BME280;3631;42.152;24.756;2023-12-04T00:11:03;86587.41;;;-144.30;91.52
7180;BME280;3631;42.152;24.756;2023-12-04T00:13:31;86619.22;;;-144.30;91.33
7180;BME280;3631;42.152;24.756;2023-12-04T00:15:58;86601.34;;;-144.30;89.66
7180;BME280;3631;42.152;24.756;2023-12-04T00:18:26;86593.38;;;-144.30;89.85
7180;BME280;3631;42.152;24.756;2023-12-04T00:20:53;86609.28;;;-144.30;90.23
7180;BME280;3631;42.152;24.756;2023-12-04T00:23:20;86569.50;;;-144.30;90.09
7180;BME280;3631;42.152;24.756;2023-12-04T00:25:46;86609.28;;;-144.30;90.90
7180;BME280;3631;42.152;24.756;2023-12-04T00:28:13;86595.38;;;-144.30;90.17
7180;BME280;3631;42.152;24.756;2023-12-04T00:30:41;86601.34;;;-144.30;89.70
7180;BME280;3631;42.152;24.756;2023-12-04T00:33:07;86597.34;;;-144.30;90.01
7180;BME280;3631;42.152;24.756;2023-12-04T00:35:36;86601.34;;;-144.30;90.06
7180;BME280;3631;42.152;24.756;2023-12-04T00:38:03;86589.41;;;-144.30;90.01
7180;BME280;3631;42.152;24.756;2023-12-04T00:40:30;86478.03;;;-144.30;89.82
7180;BME280;3631;42.152;24.756;2023-12-04T00:42:56;86577.47;;;-144.30;89.51
7180;BME280;3631;42.152;24.756;2023-12-04T00:45:23;86621.22;;;-144.30;89.13
7180;BME280;3631;42.152;24.756;2023-12-04T00:47:50;86595.38;;;-144.30;88.94
7180;BME280;3631;42.152;24.756;2023-12-04T00:50:17;86613.28;;;-144.30;89.05
7180;BME280;3631;42.152;24.756;2023-12-04T00:52:45;86625.19;;;-144.30;88.03
7180;BME280;3631;42.152;24.756;2023-12-04T00:55:13;86605.31;;;-144.30;87.87
7180;BME280;3631;42.152;24.756;2023-12-04T00:57:40;86633.16;;;-144.30;87.93
7180;BME280;3631;42.152;24.756;2023-12-04T01:00:08;86581.44;;;-144.30;87.29
7180;BME280;3631;42.152;24.756;2023-12-04T01:02:35;86625.19;;;-144.30;87.85
7180;BME280;3631;42.152;24.756;2023-12-04T01:05:02;86641.09;;;-144.30;88.26
7180;BME280;3631;42.152;24.756;2023-12-04T01:07:29;86637.13;;;-144.30;89.40
7180;BME280;3631;42.152;24.756;2023-12-04T01:09:57;86653.03;;;-144.30;88.63
7180;BME280;3631;42.152;24.756;2023-12-04T01:12:24;86645.09;;;-144.30;88.79
7180;BME280;3631;42.152;24.756;2023-12-04T01:14:52;86627.19;;;-144.30;89.01
7180;BME280;3631;42.152;24.756;2023-12-04T01:17:19;86601.34;;;-144.30;87.96
7180;BME280;3631;42.152;24.756;2023-12-04T01:19:46;86607.31;;;-144.30;87.49
7180;BME280;3631;42.152;24.756;2023-12-04T01:22:13;86639.13;;;-144.30;87.95
7180;BME280;3631;42.152;24.756;2023-12-04T01:24:40;86629.19;;;-144.30;87.51
7180;BME280;3631;42.152;24.756;2023-12-04T01:27:08;86659.00;;;-144.30;87.07
7180;BME280;3631;42.152;24.756;2023-12-04T01:29:36;86607.31;;;-144.30;86.54
7180;BME280;3631;42.152;24.756;2023-12-04T01:32:03;86639.13;;;-144.30;86.99
7180;BME280;3631;42.152;24.756;2023-12-04T01:34:30;86599.34;;;-144.30;87.46
7180;BME280;3631;42.152;24.756;2023-12-04T01:36:57;86641.09;;;-144.30;87.45
7180;BME280;3631;42.152;24.756;2023-12-04T01:39:24;86609.28;;;-144.30;87.38
7180;BME280;3631;42.152;24.756;2023-12-04T01:41:51;86581.44;;;-144.30;88.26
7180;BME280;3631;42.152;24.756;2023-12-04T01:44:20;86627.19;;;-144.30;87.87
7180;BME280;3631;42.152;24.756;2023-12-04T01:46:48;86619.22;;;-144.30;86.31
7180;BME280;3631;42.152;24.756;2023-12-04T01:49:15;86633.16;;;-144.30;85.83
7180;BME280;3631;42.152;24.756;2023-12-04T01:51:42;86625.19;;;-144.30;85.59
7180;BME280;3631;42.152;24.756;2023-12-04T01:54:10;86649.06;;;-144.30;85.37
7180;BME280;3631;42.152;24.756;2023-12-04T01:56:37;86657.03;;;-144.30;85.91
7180;BME280;3631;42.152;24.756;2023-12-04T01:59:04;86603.31;;;-144.30;86.14
7180;BME280;3631;42.152;24.756;2023-12-04T02:01:33;86655.03;;;-144.30;86.44
7180;BME280;3631;42.152;24.756;2023-12-04T02:04:01;86573.50;;;-144.30;85.97
7180;BME280;3631;42.152;24.756;2023-12-04T02:06:28;86633.16;;;-144.30;86.32
7180;BME280;3631;42.152;24.756;2023-12-04T02:08:56;86627.19;;;-144.30;86.56
7180;BME280;3631;42.152;24.756;2023-12-04T02:11:23;86637.13;;;-144.30;86.64
7180;BME280;3631;42.152;24.756;2023-12-04T02:13:50;86607.31;;;-144.30;86.25
7180;BME280;3631;42.152;24.756;2023-12-04T02:16:18;86637.13;;;-144.30;86.32
7180;BME280;3631;42.152;24.756;2023-12-04T02:18:48;86603.31;;;-144.30;86.46
7180;BME280;3631;42.152;24.756;2023-12-04T02:21:15;86641.09;;;-144.30;85.76
7180;BME280;3631;42.152;24.756;2023-12-04T02:23:42;86623.22;;;-144.30;85.61
7180;BME280;3631;42.152;24.756;2023-12-04T02:26:13;86611.28;;;-144.30;84.76
7180;BME280;3631;42.152;24.756;2023-12-04T02:28:46;86645.09;;;-144.30;85.30
7180;BME280;3631;42.152;24.756;2023-12-04T02:31:18;86593.38;;;-144.30;85.48
7180;BME280;3631;42.152;24.756;2023-12-04T02:33:47;86647.06;;;-144.30;84.99
7180;BME280;3631;42.152;24.756;2023-12-04T02:36:15;86623.22;;;-144.30;85.98
7180;BME280;3631;42.152;24.756;2023-12-04T02:38:42;86637.13;;;-144.30;84.14
7180;BME280;3631;42.152;24.756;2023-12-04T02:41:10;86613.28;;;-144.30;83.73
7180;BME280;3631;42.152;24.756;2023-12-04T02:43:37;86591.38;;;-144.30;82.44
7180;BME280;3631;42.152;24.756;2023-12-04T02:46:05;86410.44;;;-144.30;81.47
7180;BME280;3631;42.152;24.756;2023-12-04T02:48:32;86611.28;;;-144.30;81.22
7180;BME280;3631;42.152;24.756;2023-12-04T02:50:59;86611.28;;;-144.30;81.52
7180;BME280;3631;42.152;24.756;2023-12-04T02:53:26;86839.97;;;-144.30;81.40
7180;BME280;3631;42.152;24.756;2023-12-04T02:55:53;86629.19;;;-144.30;80.56
7180;BME280;3631;42.152;24.756;2023-12-04T02:58:21;86653.03;;;-144.30;80.34
7180;BME280;3631;42.152;24.756;2023-12-04T03:00:48;86607.31;;;-144.30;80.60
7180;BME280;3631;42.152;24.756;2023-12-04T03:03:15;86607.31;;;-144.30;80.00
7180;BME280;3631;42.152;24.756;2023-12-04T03:05:42;86661.00;;;-144.30;79.78
7180;BME280;3631;42.152;24.756;2023-12-04T03:08:09;86637.13;;;-144.30;81.52
7180;BME280;3631;42.152;24.756;2023-12-04T03:10:36;86643.09;;;-144.30;80.11
7180;BME280;3631;42.152;24.756;2023-12-04T03:13:03;86615.25;;;-144.30;80.34
7180;BME280;3631;42.152;24.756;2023-12-04T03:15:31;86649.06;;;-144.30;80.07
7180;BME280;3631;42.152;24.756;2023-12-04T03:17:59;86647.06;;;-144.30;81.08
7180;BME280;3631;42.152;24.756;2023-12-04T03:20:27;86682.88;;;-144.30;81.19
7180;BME280;3631;42.152;24.756;2023-12-04T03:22:54;86645.09;;;-144.30;80.89
7180;BME280;3631;42.152;24.756;2023-12-04T03:25:21;86637.13;;;-144.30;82.49
7180;BME280;3631;42.152;24.756;2023-12-04T03:27:47;86653.03;;;-144.30;81.72
7180;BME280;3631;42.152;24.756;2023-12-04T03:30:15;86645.09;;;-144.30;81.48
7180;BME280;3631;42.152;24.756;2023-12-04T03:32:43;86627.19;;;-144.30;82.47
7180;BME280;3631;42.152;24.756;2023-12-04T03:35:10;86655.03;;;-144.30;81.18
7180;BME280;3631;42.152;24.756;2023-12-04T03:37:37;86645.09;;;-144.30;81.38
7180;BME280;3631;42.152;24.756;2023-12-04T03:40:05;86599.34;;;-144.30;81.51
7180;BME280;3631;42.152;24.756;2023-12-04T03:42:32;86637.13;;;-144.30;80.75
7180;BME280;3631;42.152;24.756;2023-12-04T03:44:59;86625.19;;;-144.30;79.61
7180;BME280;3631;42.152;24.756;2023-12-04T03:47:26;86619.22;;;-144.30;79.67
7180;BME280;3631;42.152;24.756;2023-12-04T03:49:54;86609.28;;;-144.30;79.59
7180;BME280;3631;42.152;24.756;2023-12-04T03:52:21;86625.19;;;-144.30;79.26
7180;BME280;3631;42.152;24.756;2023-12-04T03:54:48;86649.06;;;-144.30;79.44
7180;BME280;3631;42.152;24.756;2023-12-04T03:57:15;86639.13;;;-144.30;78.56
7180;BME280;3631;42.152;24.756;2023-12-04T03:59:43;86625.19;;;-144.30;78.78
7180;BME280;3631;42.152;24.756;2023-12-04T04:02:10;86633.16;;;-144.30;78.45
7180;BME280;3631;42.152;24.756;2023-12-04T04:04:37;86633.16;;;-144.30;78.91
7180;BME280;3631;42.152;24.756;2023-12-04T04:07:05;86639.13;;;-144.30;78.57
7180;BME280;3631;42.152;24.756;2023-12-04T04:09:32;86627.19;;;-144.30;78.33
7180;BME280;3631;42.152;24.756;2023-12-04T04:11:59;86647.06;;;-144.30;77.69
7180;BME280;3631;42.152;24.756;2023-12-04T04:14:26;86664.97;;;-144.30;77.49
7180;BME280;3631;42.152;24.756;2023-12-04T04:16:53;86641.09;;;-144.30;76.89
7180;BME280;3631;42.152;24.756;2023-12-04T04:19:20;86625.19;;;-144.30;77.02
7180;BME280;3631;42.152;24.756;2023-12-04T04:21:46;86639.13;;;-144.30;76.63
7180;BME280;3631;42.152;24.756;2023-12-04T04:24:15;86661.00;;;-144.30;76.72
7180;BME280;3631;42.152;24.756;2023-12-04T04:26:42;86657.03;;;-144.30;77.06
7180;BME280;3631;42.152;24.756;2023-12-04T04:29:09;86629.19;;;-144.30;76.82
7180;BME280;3631;42.152;24.756;2023-12-04T04:31:35;86674.91;;;-144.30;77.85
7180;BME280;3631;42.152;24.756;2023-12-04T04:34:03;86625.19;;;-144.30;77.50
7180;BME280;3631;42.152;24.756;2023-12-04T04:36:30;86623.22;;;-144.30;76.43
7180;BME280;3631;42.152;24.756;2023-12-04T04:38:57;86641.09;;;-144.30;76.83
7180;BME280;3631;42.152;24.756;2023-12-04T04:41:25;86680.88;;;-144.30;76.44
7180;BME280;3631;42.152;24.756;2023-12-04T04:43:52;86668.94;;;-144.30;77.40
7180;BME280;3631;42.152;24.756;2023-12-04T04:46:19;86664.97;;;-144.30;76.58
7180;BME280;3631;42.152;24.756;2023-12-04T04:48:46;86664.97;;;-144.30;76.96
7180;BME280;3631;42.152;24.756;2023-12-04T04:51:13;86682.88;;;-144.30;76.00
7180;BME280;3631;42.152;24.756;2023-12-04T04:53:40;86647.06;;;-144.30;75.58
7180;BME280;3631;42.152;24.756;2023-12-04T04:56:09;86682.88;;;-144.30;76.39
7180;BME280;3631;42.152;24.756;2023-12-04T04:58:37;86670.94;;;-144.30;76.25
7180;BME280;3631;42.152;24.756;2023-12-04T05:01:04;86676.91;;;-144.30;75.30
7180;BME280;3631;42.152;24.756;2023-12-04T05:03:31;86680.88;;;-144.30;75.03
7180;BME280;3631;42.152;24.756;2023-12-04T05:05:58;86692.81;;;-144.30;75.35
7180;BME280;3631;42.152;24.756;2023-12-04T05:08:25;86661.00;;;-144.30;75.85
7180;BME280;3631;42.152;24.756;2023-12-04T05:10:52;86674.91;;;-144.30;75.20
7180;BME280;3631;42.152;24.756;2023-12-04T05:13:19;86680.88;;;-144.30;78.68
7180;BME280;3631;42.152;24.756;2023-12-04T05:15:47;86672.94;;;-144.30;76.46
7180;BME280;3631;42.152;24.756;2023-12-04T05:18:14;86649.06;;;-144.30;76.25
7180;BME280;3631;42.152;24.756;2023-12-04T05:20:41;86657.03;;;-144.30;75.76
7180;BME280;3631;42.152;24.756;2023-12-04T05:23:08;86684.84;;;-144.30;76.06
7180;BME280;3631;42.152;24.756;2023-12-04T05:25:35;86661.00;;;-144.30;75.50
7180;BME280;3631;42.152;24.756;2023-12-04T05:28:02;86668.94;;;-144.30;75.03
7180;BME280;3631;42.152;24.756;2023-12-04T05:30:29;86629.19;;;-144.30;74.52
7180;BME280;3631;42.152;24.756;2023-12-04T05:32:57;86676.91;;;-144.30;75.39
7180;BME280;3631;42.152;24.756;2023-12-04T05:35:24;86680.88;;;-144.30;75.11
7180;BME280;3631;42.152;24.756;2023-12-04T05:37:51;86653.03;;;-144.30;75.28
7180;BME280;3631;42.152;24.756;2023-12-04T05:40:18;86678.88;;;-144.30;74.37
7180;BME280;3631;42.152;24.756;2023-12-04T05:42:45;86684.84;;;-144.30;73.98
7180;BME280;3631;42.152;24.756;2023-12-04T05:45:12;86670.94;;;-144.30;74.03
7180;BME280;3631;42.152;24.756;2023-12-04T05:47:39;86649.06;;;-144.30;74.07
7180;BME280;3631;42.152;24.756;2023-12-04T05:50:08;86645.09;;;-144.30;74.35
7180;BME280;3631;42.152;24.756;2023-12-04T05:52:35;86639.13;;;-144.30;74.37
7180;BME280;3631;42.152;24.756;2023-12-04T05:55:02;86668.94;;;-144.30;74.44
7180;BME280;3631;42.152;24.756;2023-12-04T05:57:29;86676.91;;;-144.30;74.37
7180;BME280;3631;42.152;24.756;2023-12-04T05:59:56;86676.91;;;-144.30;74.16
7180;BME280;3631;42.152;24.756;2023-12-04T06:02:23;86657.03;;;-144.30;73.22
7180;BME280;3631;42.152;24.756;2023-12-04T06:04:50;86668.94;;;-144.30;72.25
7180;BME280;3631;42.152;24.756;2023-12-04T06:07:18;86672.94;;;-144.30;71.33
7180;BME280;3631;42.152;24.756;2023-12-04T06:09:45;86694.81;;;-144.30;70.54
7180;BME280;3631;42.152;24.756;2023-12-04T06:12:12;86647.06;;;-144.30;70.96
7180;BME280;3631;42.152;24.756;2023-12-04T06:14:39;86657.03;;;-144.30;71.43
7180;BME280;3631;42.152;24.756;2023-12-04T06:17:06;86657.03;;;-144.30;71.04
7180;BME280;3631;42.152;24.756;2023-12-04T06:19:33;86617.25;;;-144.30;72.38
7180;BME280;3631;42.152;24.756;2023-12-04T06:22:00;86696.78;;;-144.30;72.20
7180;BME280;3631;42.152;24.756;2023-12-04T06:24:28;86655.03;;;-144.30;72.46
7180;BME280;3631;42.152;24.756;2023-12-04T06:26:56;86676.91;;;-144.30;72.61
7180;BME280;3631;42.152;24.756;2023-12-04T06:29:24;86627.19;;;-144.30;72.50
7180;BME280;3631;42.152;24.756;2023-12-04T06:31:51;86653.03;;;-144.30;72.55
7180;BME280;3631;42.152;24.756;2023-12-04T06:34:19;86645.09;;;-144.30;72.62
7180;BME280;3631;42.152;24.756;2023-12-04T06:36:46;86678.88;;;-144.30;72.83
7180;BME280;3631;42.152;24.756;2023-12-04T06:39:16;86641.09;;;-144.30;71.84
7180;BME280;3631;42.152;24.756;2023-12-04T06:41:45;86655.03;;;-144.30;71.51
7180;BME280;3631;42.152;24.756;2023-12-04T06:44:14;86653.03;;;-144.30;70.69
7180;BME280;3631;42.152;24.756;2023-12-04T06:46:41;86637.13;;;-144.30;71.08
7180;BME280;3631;42.152;24.756;2023-12-04T06:49:11;86623.22;;;-144.30;71.04
7180;BME280;3631;42.152;24.756;2023-12-04T06:51:41;86629.19;;;-144.30;70.66
7180;BME280;3631;42.152;24.756;2023-12-04T06:54:08;86607.31;;;-144.30;70.58
7180;BME280;3631;42.152;24.756;2023-12-04T06:56:35;86645.09;;;-144.30;70.60
7180;BME280;3631;42.152;24.756;2023-12-04T06:59:03;87158.19;;;-144.30;69.81
7180;BME280;3631;42.152;24.756;2023-12-04T07:01:30;86621.22;;;-144.30;70.14
7180;BME280;3631;42.152;24.756;2023-12-04T07:03:57;86613.28;;;-144.30;70.48
7180;BME280;3631;42.152;24.756;2023-12-04T07:06:24;86629.19;;;-144.30;69.99
7180;BME280;3631;42.152;24.756;2023-12-04T07:08:51;86649.06;;;-144.30;70.17
7180;BME280;3631;42.152;24.756;2023-12-04T07:11:18;86645.09;;;-144.30;69.84
7180;BME280;3631;42.152;24.756;2023-12-04T07:13:45;86659.00;;;-144.30;69.69
7180;BME280;3631;42.152;24.756;2023-12-04T07:16:13;86637.13;;;-144.30;70.00
7180;BME280;3631;42.152;24.756;2023-12-04T07:18:40;86633.16;;;-144.30;70.71
7180;BME280;3631;42.152;24.756;2023-12-04T07:21:07;86613.28;;;-144.30;70.73
7180;BME280;3631;42.152;24.756;2023-12-04T07:23:35;86631.16;;;-144.30;70.75
7180;BME280;3631;42.152;24.756;2023-12-04T07:26:02;86647.06;;;-144.30;69.66
7180;BME280;3631;42.152;24.756;2023-12-04T07:28:32;86627.19;;;-144.30;70.84
7180;BME280;3631;42.152;24.756;2023-12-04T07:30:59;86599.34;;;-144.30;69.46
7180;BME280;3631;42.152;24.756;2023-12-04T07:33:28;86609.28;;;-144.30;70.06
7180;BME280;3631;42.152;24.756;2023-12-04T07:35:55;86591.38;;;-144.30;68.83
7180;BME280;3631;42.152;24.756;2023-12-04T07:38:22;86601.34;;;-144.30;68.69
7180;BME280;3631;42.152;24.756;2023-12-04T07:40:49;86569.50;;;-144.30;68.25
7180;BME280;3631;42.152;24.756;2023-12-04T07:43:16;86613.28;;;-144.30;68.90
7180;BME280;3631;42.152;24.756;2023-12-04T07:45:43;86559.56;;;-144.30;68.62
7180;BME280;3631;42.152;24.756;2023-12-04T07:48:10;86629.19;;;-144.30;67.92
7180;BME280;3631;42.152;24.756;2023-12-04T07:50:39;86603.31;;;-144.30;68.08
7180;BME280;3631;42.152;24.756;2023-12-04T07:53:06;86589.41;;;-144.30;67.56
7180;BME280;3631;42.152;24.756;2023-12-04T07:55:35;86603.31;;;-144.30;67.37
7180;BME280;3631;42.152;24.756;2023-12-04T07:58:02;86551.63;;;-144.30;67.22
7180;BME280;3631;42.152;24.756;2023-12-04T08:00:29;86633.16;;;-144.30;66.91
7180;BME280;3631;42.152;24.756;2023-12-04T08:02:56;86627.19;;;-144.30;67.21
7180;BME280;3631;42.152;24.756;2023-12-04T08:05:22;86609.28;;;-144.30;66.73
7180;BME280;3631;42.152;24.756;2023-12-04T08:07:51;86625.19;;;-144.30;67.29
7180;BME280;3631;42.152;24.756;2023-12-04T08:10:18;86599.34;;;-144.30;67.51
7180;BME280;3631;42.152;24.756;2023-12-04T08:12:45;86597.34;;;-144.30;67.77
7180;BME280;3631;42.152;24.756;2023-12-04T08:15:12;86581.44;;;-144.30;67.18
7180;BME280;3631;42.152;24.756;2023-12-04T08:17:39;86573.50;;;-144.30;67.24
7180;BME280;3631;42.152;24.756;2023-12-04T08:20:07;86617.25;;;-144.30;66.52
7180;BME280;3631;42.152;24.756;2023-12-04T08:22:39;86569.50;;;-144.30;67.46
7180;BME280;3631;42.152;24.756;2023-12-04T08:25:07;86599.34;;;-144.30;66.27
7180;BME280;3631;42.152;24.756;2023-12-04T08:27:35;86577.47;;;-144.30;66.58
7180;BME280;3631;42.152;24.756;2023-12-04T08:30:04;86557.59;;;-144.30;67.11
7180;BME280;3631;42.152;24.756;2023-12-04T08:32:31;86607.31;;;-144.30;67.24
7180;BME280;3631;42.152;24.756;2023-12-04T08:34:58;86569.50;;;-144.30;66.84
7180;BME280;3631;42.152;24.756;2023-12-04T08:37:25;86557.59;;;-144.30;67.50
7180;BME280;3631;42.152;24.756;2023-12-04T08:39:52;86565.53;;;-144.30;66.86
7180;BME280;3631;42.152;24.756;2023-12-04T08:42:21;86549.63;;;-144.30;67.02
7180;BME280;3631;42.152;24.756;2023-12-04T08:44:48;86521.78;;;-144.30;66.24
7180;BME280;3631;42.152;24.756;2023-12-04T08:47:15;86543.66;;;-144.30;66.61
7180;BME280;3631;42.152;24.756;2023-12-04T08:49:42;86559.56;;;-144.30;66.09
7180;BME280;3631;42.152;24.756;2023-12-04T08:52:09;86507.88;;;-144.30;66.73
7180;BME280;3631;42.152;24.756;2023-12-04T08:54:39;86493.94;;;-144.30;65.90
7180;BME280;3631;42.152;24.756;2023-12-04T08:57:07;86519.81;;;-144.30;66.16
7180;BME280;3631;42.152;24.756;2023-12-04T08:59:35;86557.59;;;-144.30;66.61
7180;BME280;3631;42.152;24.756;2023-12-04T09:02:02;86470.09;;;-144.30;67.29
7180;BME280;3631;42.152;24.756;2023-12-04T09:04:29;86505.88;;;-144.30;67.26
7180;BME280;3631;42.152;24.756;2023-12-04T09:06:56;86523.78;;;-144.30;66.71
7180;BME280;3631;42.152;24.756;2023-12-04T09:09:23;86474.06;;;-144.30;66.95
7180;BME280;3631;42.152;24.756;2023-12-04T09:11:50;86517.81;;;-144.30;66.86
7180;BME280;3631;42.152;24.756;2023-12-04T09:14:17;86521.78;;;-144.30;63.48
7180;BME280;3631;42.152;24.756;2023-12-04T09:16:45;86539.69;;;-144.30;63.37
7180;BME280;3631;42.152;24.756;2023-12-04T09:19:12;86515.81;;;-144.30;62.13
7180;BME280;3631;42.152;24.756;2023-12-04T09:21:39;86491.97;;;-144.30;62.28
7180;BME280;3631;42.152;24.756;2023-12-04T09:24:06;86563.56;;;-144.30;62.68
7180;BME280;3631;42.152;24.756;2023-12-04T09:26:33;86513.84;;;-144.30;62.27
7180;BME280;3631;42.152;24.756;2023-12-04T09:29:00;86474.06;;;-144.30;61.68
7180;BME280;3631;42.152;24.756;2023-12-04T09:31:28;86499.91;;;-144.30;62.33
7180;BME280;3631;42.152;24.756;2023-12-04T09:33:56;86434.28;;;-144.30;61.80
7180;BME280;3631;42.152;24.756;2023-12-04T09:36:23;86478.03;;;-144.30;62.32
7180;BME280;3631;42.152;24.756;2023-12-04T09:38:50;86476.06;;;-144.30;61.52
7180;BME280;3631;42.152;24.756;2023-12-04T09:41:17;86470.09;;;-144.30;61.70
7180;BME280;3631;42.152;24.756;2023-12-04T09:43:46;86450.19;;;-144.30;61.46
7180;BME280;3631;42.152;24.756;2023-12-04T09:46:14;86434.28;;;-144.30;60.03
7180;BME280;3631;42.152;24.756;2023-12-04T09:48:43;86402.47;;;-144.30;60.96
7180;BME280;3631;42.152;24.756;2023-12-04T09:51:12;86386.56;;;-144.30;60.43
7180;BME280;3631;42.152;24.756;2023-12-04T09:53:40;86420.38;;;-144.30;60.74
7180;BME280;3631;42.152;24.756;2023-12-04T09:56:08;86388.56;;;-144.30;60.85
7180;BME280;3631;42.152;24.756;2023-12-04T09:58:39;86440.25;;;-144.30;60.86
7180;BME280;3631;42.152;24.756;2023-12-04T10:01:07;86446.22;;;-144.30;60.59
7180;BME280;3631;42.152;24.756;2023-12-04T10:03:35;86430.31;;;-144.30;60.41
7180;BME280;3631;42.152;24.756;2023-12-04T10:06:02;86418.38;;;-144.30;60.26
7180;BME280;3631;42.152;24.756;2023-12-04T10:08:31;86458.16;;;-144.30;60.99
7180;BME280;3631;42.152;24.756;2023-12-04T10:10:58;86396.50;;;-144.30;60.74
7180;BME280;3631;42.152;24.756;2023-12-04T10:13:26;86398.50;;;-144.30;61.04
7180;BME280;3631;42.152;24.756;2023-12-04T10:15:53;86382.59;;;-144.30;60.79
7180;BME280;3631;42.152;24.756;2023-12-04T10:18:27;86386.56;;;-144.30;61.04
7180;BME280;3631;42.152;24.756;2023-12-04T10:20:56;86394.53;;;-144.30;60.68
7180;BME280;3631;42.152;24.756;2023-12-04T10:23:36;86334.88;;;-144.30;60.60
7180;BME280;3631;42.152;24.756;2023-12-04T10:26:05;86362.72;;;-144.30;60.56
7180;BME280;3631;42.152;24.756;2023-12-04T10:28:32;86366.69;;;-144.30;60.51
7180;BME280;3631;42.152;24.756;2023-12-04T10:31:00;86368.66;;;-144.30;60.19
7180;BME280;3631;42.152;24.756;2023-12-04T10:33:29;86384.59;;;-144.30;61.12
7180;BME280;3631;42.152;24.756;2023-12-04T10:35:56;86354.75;;;-144.30;59.74
7180;BME280;3631;42.152;24.756;2023-12-04T10:38:23;86372.66;;;-144.30;59.92
7180;BME280;3631;42.152;24.756;2023-12-04T10:40:52;86263.28;;;-144.30;60.40
7180;BME280;3631;42.152;24.756;2023-12-04T10:43:21;86318.97;;;-144.30;59.65
7180;BME280;3631;42.152;24.756;2023-12-04T10:45:49;86352.75;;;-144.30;60.02
7180;BME280;3631;42.152;24.756;2023-12-04T10:48:18;86364.69;;;-144.30;60.72
7180;BME280;3631;42.152;24.756;2023-12-04T10:50:46;86384.59;;;-144.30;61.05
7180;BME280;3631;42.152;24.756;2023-12-04T10:53:14;86346.81;;;-144.30;59.88
7180;BME280;3631;42.152;24.756;2023-12-04T10:55:42;86322.94;;;-144.30;60.09
7180;BME280;3631;42.152;24.756;2023-12-04T10:58:11;86354.75;;;-144.30;59.66
7180;BME280;3631;42.152;24.756;2023-12-04T11:00:43;86396.50;;;-144.30;59.52
7180;BME280;3631;42.152;24.756;2023-12-04T11:03:15;86299.06;;;-144.30;59.39
7180;BME280;3631;42.152;24.756;2023-12-04T11:05:47;86299.06;;;-144.30;59.72
7180;BME280;3631;42.152;24.756;2023-12-04T11:08:16;86354.75;;;-144.30;60.07
7180;BME280;3631;42.152;24.756;2023-12-04T11:10:48;86370.66;;;-144.30;59.55
7180;BME280;3631;42.152;24.756;2023-12-04T11:13:17;86376.63;;;-144.30;59.84
7180;BME280;3631;42.152;24.756;2023-12-04T11:15:50;86324.94;;;-144.30;59.40
7180;BME280;3631;42.152;24.756;2023-12-04T11:18:21;86581.44;;;-144.30;59.56
7180;BME280;3631;42.152;24.756;2023-12-04T11:20:53;86330.88;;;-144.30;59.59
7180;BME280;3631;42.152;24.756;2023-12-04T11:23:22;86314.97;;;-144.30;59.69
7180;BME280;3631;42.152;24.756;2023-12-04T11:25:50;86931.47;;;-144.30;59.28
7180;BME280;3631;42.152;24.756;2023-12-04T11:28:18;86322.94;;;-144.30;59.60
7180;BME280;3631;42.152;24.756;2023-12-04T11:30:46;86342.81;;;-144.30;60.33
7180;BME280;3631;42.152;24.756;2023-12-04T11:33:17;86360.72;;;-144.30;60.59
7180;BME280;3631;42.152;24.756;2023-12-04T11:35:45;86328.91;;;-144.30;60.27
7180;BME280;3631;42.152;24.756;2023-12-04T11:38:13;86342.81;;;-144.30;60.30
7180;BME280;3631;42.152;24.756;2023-12-04T11:40:41;86314.97;;;-144.30;59.78
7180;BME280;3631;42.152;24.756;2023-12-04T11:43:21;86366.69;;;-144.30;59.62
7180;BME280;3631;42.152;24.756;2023-12-04T11:45:49;86348.78;;;-144.30;59.22
7180;BME280;3631;42.152;24.756;2023-12-04T11:48:22;86199.66;;;-144.30;59.71
7180;BME280;3631;42.152;24.756;2023-12-04T11:50:50;86334.88;;;-144.30;59.56
7180;BME280;3631;42.152;24.756;2023-12-04T11:53:17;86338.84;;;-144.30;59.63
7180;BME280;3631;42.152;24.756;2023-12-04T11:55:45;86314.97;;;-144.30;59.60
7180;BME280;3631;42.152;24.756;2023-12-04T11:58:12;86320.94;;;-144.30;59.37
7180;BME280;3631;42.152;24.756;2023-12-04T12:00:41;86307.03;;;-144.30;59.60
7180;BME280;3631;42.152;24.756;2023-12-04T12:03:09;86342.81;;;-144.30;59.49
7180;BME280;3631;42.152;24.756;2023-12-04T12:05:37;86330.88;;;-144.30;58.33
7180;BME280;3631;42.152;24.756;2023-12-04T12:08:07;86311.00;;;-144.30;58.79
7180;BME280;3631;42.152;24.756;2023-12-04T12:10:35;86322.94;;;-144.30;58.47
7180;BME280;3631;42.152;24.756;2023-12-04T12:13:02;86322.94;;;-144.30;58.57
7180;BME280;3631;42.152;24.756;2023-12-04T12:15:30;86318.97;;;-144.30;58.45
7180;BME280;3631;42.152;24.756;2023-12-04T12:17:58;86233.47;;;-144.30;58.31
7180;BME280;3631;42.152;24.756;2023-12-04T12:20:26;86330.88;;;-144.30;59.03
7180;BME280;3631;42.152;24.756;2023-12-04T12:22:54;86316.97;;;-144.30;59.10
7180;BME280;3631;42.152;24.756;2023-12-04T12:25:21;86299.06;;;-144.30;58.71
7180;BME280;3631;42.152;24.756;2023-12-04T12:27:50;86328.91;;;-144.30;58.70
7180;BME280;3631;42.152;24.756;2023-12-04T12:30:17;86183.75;;;-144.30;58.44
7180;BME280;3631;42.152;24.756;2023-12-04T12:32:44;86261.28;;;-144.30;58.13
7180;BME280;3631;42.152;24.756;2023-12-04T12:35:11;86247.38;;;-144.30;57.54
7180;BME280;3631;42.152;24.756;2023-12-04T12:37:38;86316.97;;;-144.30;57.28
7180;BME280;3631;42.152;24.756;2023-12-04T12:40:09;86209.59;;;-144.30;57.01
7180;BME280;3631;42.152;24.756;2023-12-04T12:42:37;86320.94;;;-144.30;57.65
7180;BME280;3631;42.152;24.756;2023-12-04T12:45:08;86297.09;;;-144.30;57.53
7180;BME280;3631;42.152;24.756;2023-12-04T12:47:37;86239.44;;;-144.30;57.53
7180;BME280;3631;42.152;24.756;2023-12-04T12:50:08;86287.16;;;-144.30;56.79
7180;BME280;3631;42.152;24.756;2023-12-04T12:52:39;86330.88;;;-144.30;57.35